createdAt,value
2023-05-12T00:01:08.206Z,99.90
2023-05-12T00:03:35.112Z,99.90
2023-05-12T00:06:04.393Z,99.90
2023-05-12T00:08:31.440Z,99.90
2023-05-12T00:10:58.377Z,99.90
2023-05-12T00:13:25.134Z,99.90
2023-05-12T00:15:51.955Z,99.90
2023-05-12T00:18:18.713Z,99.90
2023-05-12T00:20:45.562Z,99.90
2023-05-12T00:23:12.204Z,99.90
2023-05-12T00:25:38.968Z,99.90
2023-05-12T00:28:05.674Z,99.90
2023-05-12T00:30:32.350Z,99.90
2023-05-12T00:32:59.059Z,99.90
2023-05-12T00:35:25.839Z,99.90
2023-05-12T00:37:52.508Z,99.90
2023-05-12T00:40:19.666Z,99.90
2023-05-12T00:42:46.486Z,99.90
2023-05-12T00:45:13.122Z,99.90
2023-05-12T00:47:39.892Z,99.90
2023-05-12T00:50:06.911Z,99.90
2023-05-12T00:52:33.602Z,99.90
2023-05-12T00:55:00.400Z,99.90
2023-05-12T00:57:27.951Z,99.90
2023-05-12T00:59:55.126Z,99.90
2023-05-12T01:02:22.162Z,99.90
2023-05-12T01:04:49.225Z,99.90
2023-05-12T01:07:17.821Z,99.90
2023-05-12T01:09:44.550Z,99.90
2023-05-12T01:12:11.199Z,99.90
2023-05-12T01:14:37.916Z,99.90
2023-05-12T01:17:06.685Z,99.90
2023-05-12T01:20:03.018Z,99.90
2023-05-12T01:22:31.367Z,99.90
2023-05-12T01:24:59.130Z,99.90
2023-05-12T01:27:26.237Z,99.90
2023-05-12T01:29:53.109Z,99.90
2023-05-12T01:32:19.906Z,99.90
2023-05-12T01:34:46.674Z,99.90
2023-05-12T01:37:13.434Z,99.90
2023-05-12T01:39:40.141Z,99.90
2023-05-12T01:42:06.848Z,99.90
2023-05-12T01:44:33.521Z,99.90
2023-05-12T01:47:00.155Z,99.90
2023-05-12T01:49:26.807Z,99.90
2023-05-12T01:51:53.557Z,99.90
2023-05-12T01:54:20.388Z,99.90
2023-05-12T01:56:47.080Z,99.90
2023-05-12T01:59:13.822Z,99.90
2023-05-12T02:01:40.676Z,99.90
2023-05-12T02:04:08.907Z,99.90
2023-05-12T02:06:35.918Z,99.90
2023-05-12T02:09:02.881Z,99.90
2023-05-12T02:11:29.735Z,99.90
2023-05-12T02:13:56.564Z,99.90
2023-05-12T02:16:23.345Z,99.90
2023-05-12T02:18:50.138Z,99.90
2023-05-12T02:21:16.862Z,99.90
2023-05-12T02:23:43.485Z,99.90
2023-05-12T02:26:10.231Z,99.90
2023-05-12T02:28:37.443Z,99.90
2023-05-12T02:31:04.492Z,99.90
2023-05-12T02:33:31.396Z,99.90
2023-05-12T02:35:58.073Z,99.90
2023-05-12T02:38:24.767Z,99.90
2023-05-12T02:40:51.433Z,99.90
2023-05-12T02:43:18.152Z,99.90
2023-05-12T02:45:44.843Z,99.90
2023-05-12T02:48:11.657Z,99.90
2023-05-12T02:50:38.302Z,99.90
2023-05-12T02:53:04.952Z,99.90
2023-05-12T02:55:31.659Z,99.90
2023-05-12T02:57:58.343Z,99.90
2023-05-12T03:00:24.987Z,99.90
2023-05-12T03:02:51.739Z,99.90
2023-05-12T03:05:18.537Z,99.90
2023-05-12T03:07:45.320Z,99.90
2023-05-12T03:10:11.983Z,99.90
2023-05-12T03:12:38.775Z,99.90
2023-05-12T03:15:05.908Z,99.90
2023-05-12T03:17:32.653Z,99.90
2023-05-12T03:19:59.373Z,99.90
2023-05-12T03:22:26.100Z,99.90
2023-05-12T03:24:52.848Z,99.90
2023-05-12T03:27:19.710Z,99.90
2023-05-12T03:29:46.704Z,99.90
2023-05-12T03:32:13.417Z,99.90
2023-05-12T03:34:40.107Z,99.90
2023-05-12T03:37:06.846Z,99.90
2023-05-12T03:39:33.509Z,99.90
2023-05-12T03:42:00.248Z,99.90
2023-05-12T03:44:26.943Z,99.90
2023-05-12T03:46:53.771Z,99.90
2023-05-12T03:49:20.475Z,99.90
2023-05-12T03:51:47.400Z,99.90
2023-05-12T03:54:14.117Z,99.90
2023-05-12T03:56:40.864Z,99.90
2023-05-12T03:59:07.551Z,99.90
2023-05-12T04:01:34.360Z,99.90
2023-05-12T04:04:01.127Z,99.90
2023-05-12T04:06:27.815Z,99.90
2023-05-12T04:08:54.609Z,99.90
2023-05-12T04:11:21.329Z,99.90
2023-05-12T04:13:47.999Z,99.90
2023-05-12T04:16:14.711Z,99.90
2023-05-12T04:18:41.461Z,99.90
2023-05-12T04:21:08.170Z,99.90
2023-05-12T04:23:34.952Z,99.90
2023-05-12T04:26:03.584Z,99.90
2023-05-12T04:28:30.207Z,99.90
2023-05-12T04:30:56.907Z,99.90
2023-05-12T04:33:23.622Z,99.90
2023-05-12T04:35:50.410Z,99.90
2023-05-12T04:38:17.073Z,99.90
2023-05-12T04:40:43.756Z,99.90
2023-05-12T04:44:00.005Z,99.90
2023-05-12T04:45:58.586Z,99.90
2023-05-12T04:48:26.690Z,99.90
2023-05-12T04:50:53.370Z,99.90
2023-05-12T04:53:20.034Z,99.90
2023-05-12T04:55:46.795Z,99.90
2023-05-12T04:58:13.890Z,99.90
2023-05-12T05:00:40.630Z,99.90
2023-05-12T05:03:07.368Z,99.90
2023-05-12T05:05:34.155Z,99.90
2023-05-12T05:08:01.651Z,99.90
2023-05-12T05:10:28.333Z,99.90
2023-05-12T05:12:55.062Z,99.90
2023-05-12T05:15:21.880Z,99.90
2023-05-12T05:17:49.819Z,99.90
2023-05-12T05:20:17.046Z,99.90
2023-05-12T05:22:43.839Z,99.90
2023-05-12T05:25:10.929Z,99.90
2023-05-12T05:27:38.861Z,98.00
2023-05-12T05:30:06.887Z,85.20
2023-05-12T05:32:34.626Z,73.50
2023-05-12T05:35:01.301Z,67.30
2023-05-12T05:37:28.037Z,62.80
2023-05-12T05:39:54.703Z,58.30
2023-05-12T05:42:21.373Z,56.20
2023-05-12T05:44:48.000Z,55.60
2023-05-12T05:47:14.784Z,57.00
2023-05-12T05:49:42.223Z,58.80
2023-05-12T05:52:09.381Z,61.30
2023-05-12T05:54:36.064Z,61.10
2023-05-12T05:57:03.062Z,60.70
2023-05-12T05:59:29.812Z,58.50
2023-05-12T06:01:56.571Z,59.10
2023-05-12T06:04:23.447Z,60.00
2023-05-12T06:06:50.238Z,62.60
2023-05-12T06:09:17.106Z,64.10
2023-05-12T06:11:43.837Z,65.50
2023-05-12T06:14:11.503Z,68.40
2023-05-12T06:16:38.243Z,73.20
2023-05-12T06:19:05.072Z,74.90
2023-05-12T06:21:32.292Z,73.50
2023-05-12T06:23:59.298Z,72.10
2023-05-12T06:26:26.123Z,67.30
2023-05-12T06:28:52.865Z,63.30
2023-05-12T06:31:19.547Z,59.40
2023-05-12T06:33:46.261Z,56.40
2023-05-12T06:36:13.024Z,54.60
2023-05-12T06:38:39.714Z,51.70
2023-05-12T06:41:06.655Z,49.50
2023-05-12T06:43:33.515Z,48.40
2023-05-12T06:46:00.284Z,47.60
2023-05-12T06:48:27.038Z,48.40
2023-05-12T06:50:53.949Z,47.70
2023-05-12T06:53:21.168Z,48.40
2023-05-12T06:55:50.502Z,47.80
2023-05-12T06:58:19.068Z,48.70
2023-05-12T07:00:45.748Z,49.00
2023-05-12T07:03:12.562Z,48.00
2023-05-12T07:05:39.657Z,46.60
2023-05-12T07:08:06.441Z,46.20
2023-05-12T07:10:33.193Z,45.80
2023-05-12T07:12:59.972Z,45.80
2023-05-12T07:15:26.834Z,45.30
2023-05-12T07:17:55.454Z,44.80
2023-05-12T07:20:22.402Z,44.40
2023-05-12T07:22:49.118Z,44.30
2023-05-12T07:25:16.115Z,43.50
2023-05-12T07:27:42.900Z,44.00
2023-05-12T07:30:09.714Z,43.10
2023-05-12T07:32:36.691Z,43.30
2023-05-12T07:35:03.738Z,44.30
2023-05-12T07:37:30.595Z,43.90
2023-05-12T07:39:57.309Z,43.20
2023-05-12T07:42:24.325Z,41.90
2023-05-12T07:44:51.010Z,41.60
2023-05-12T07:47:17.770Z,41.00
2023-05-12T07:49:44.594Z,41.10
2023-05-12T07:52:11.312Z,40.70
2023-05-12T07:54:38.002Z,39.70
2023-05-12T07:57:04.730Z,41.10
2023-05-12T07:59:31.408Z,41.90
2023-05-12T08:01:58.802Z,44.10
2023-05-12T08:04:25.738Z,45.20
2023-05-12T08:06:52.635Z,47.70
2023-05-12T08:09:19.345Z,48.60
2023-05-12T08:11:48.094Z,50.10
2023-05-12T08:14:16.835Z,50.60
2023-05-12T08:16:45.592Z,52.40
2023-05-12T08:19:12.888Z,51.90
2023-05-12T08:21:40.349Z,51.40
2023-05-12T08:24:07.137Z,51.30
2023-05-12T08:26:33.930Z,50.60
2023-05-12T08:29:01.607Z,52.40
2023-05-12T08:31:28.338Z,53.90
2023-05-12T08:36:26.232Z,52.10
2023-05-12T08:38:52.940Z,48.70
2023-05-12T08:41:21.899Z,47.40
2023-05-12T08:43:51.876Z,45.90
2023-05-12T08:46:18.815Z,45.40
2023-05-12T08:48:46.321Z,42.50
2023-05-12T08:51:13.879Z,41.70
2023-05-12T08:53:41.023Z,42.10
2023-05-12T08:58:41.804Z,42.00
2023-05-12T09:01:09.763Z,41.10
2023-05-12T09:03:36.552Z,39.70
2023-05-12T09:06:03.757Z,39.20
2023-05-12T09:08:31.865Z,39.50
2023-05-12T09:10:58.730Z,37.20
2023-05-12T09:13:40.387Z,37.10
2023-05-12T09:16:07.982Z,38.50
2023-05-12T09:18:53.964Z,41.80
2023-05-12T09:21:20.773Z,44.40
2023-05-12T09:24:05.997Z,47.10
2023-05-12T09:26:46.332Z,48.90
2023-05-12T09:29:20.722Z,50.70
2023-05-12T09:31:55.778Z,53.20
2023-05-12T09:34:30.517Z,54.60
2023-05-12T09:36:57.973Z,55.70
2023-05-12T09:39:24.864Z,58.10
2023-05-12T09:41:52.694Z,59.30
2023-05-12T09:44:19.572Z,60.70
2023-05-12T09:46:46.288Z,63.10
2023-05-12T09:49:13.128Z,62.60
2023-05-12T09:51:40.137Z,62.70
2023-05-12T09:54:07.938Z,64.10
2023-05-12T09:56:36.448Z,65.10
2023-05-12T09:59:04.578Z,66.40
2023-05-12T10:01:31.683Z,67.50
2023-05-12T10:03:58.834Z,64.50
2023-05-12T10:06:34.113Z,64.50
2023-05-12T10:09:19.047Z,67.10
2023-05-12T10:11:45.854Z,59.80
2023-05-12T10:14:13.456Z,59.40
2023-05-12T10:16:40.540Z,61.20
2023-05-12T10:19:07.408Z,62.40
2023-05-12T10:21:34.186Z,62.90
2023-05-12T10:24:00.857Z,62.00
2023-05-12T10:26:27.550Z,62.40
2023-05-12T10:28:54.224Z,62.20
2023-05-12T10:31:22.387Z,58.50
2023-05-12T10:33:58.956Z,59.10
2023-05-12T10:36:26.019Z,60.30
2023-05-12T10:38:52.903Z,60.00
2023-05-12T10:41:29.117Z,59.70
2023-05-12T10:43:55.845Z,59.90
2023-05-12T10:46:22.784Z,59.40
2023-05-12T10:48:52.901Z,60.80
2023-05-12T10:51:24.141Z,61.70
2023-05-12T10:53:54.635Z,62.30
2023-05-12T10:56:23.045Z,63.10
2023-05-12T10:59:09.714Z,62.50
2023-05-12T11:01:37.864Z,62.90
2023-05-12T11:04:14.445Z,60.10
2023-05-12T11:06:41.746Z,60.60
2023-05-12T11:09:09.385Z,59.10
2023-05-12T11:11:36.462Z,57.70
2023-05-12T11:14:03.283Z,59.00
2023-05-12T11:16:30.107Z,57.40
2023-05-12T11:19:03.803Z,57.10
2023-05-12T11:21:33.657Z,57.20
2023-05-12T11:24:00.734Z,55.70
2023-05-12T11:26:27.821Z,54.30
2023-05-12T11:28:54.792Z,54.20
2023-05-12T11:31:21.716Z,54.80
2023-05-12T11:33:53.706Z,54.90
2023-05-12T11:36:25.358Z,53.20
2023-05-12T11:38:52.098Z,52.00
2023-05-12T11:41:25.131Z,51.60
2023-05-12T11:43:52.262Z,52.60
2023-05-12T11:46:26.579Z,53.10
2023-05-12T11:48:56.739Z,51.80
2023-05-12T11:51:23.507Z,52.70
2023-05-12T11:53:50.432Z,51.40
2023-05-12T11:56:21.791Z,52.90
2023-05-12T11:58:54.990Z,53.00
2023-05-12T12:01:21.914Z,53.70
2023-05-12T12:03:49.013Z,54.60
2023-05-12T12:06:15.781Z,55.60
2023-05-12T12:08:52.076Z,55.70
2023-05-12T12:11:19.253Z,55.30
2023-05-12T12:13:51.665Z,55.60
2023-05-12T12:16:18.383Z,56.00
2023-05-12T12:18:45.178Z,57.70
2023-05-12T12:21:12.122Z,58.70
2023-05-12T12:23:50.422Z,58.30
2023-05-12T12:26:17.542Z,57.90
2023-05-12T12:28:45.791Z,58.80
2023-05-12T12:31:13.077Z,58.70
2023-05-12T12:33:39.821Z,58.20
2023-05-12T12:36:06.644Z,56.60
2023-05-12T12:38:33.413Z,56.40
2023-05-12T12:41:00.475Z,57.80
2023-05-12T12:43:27.342Z,57.80
2023-05-12T12:45:54.618Z,58.50
2023-05-12T12:48:21.686Z,59.70
2023-05-12T12:50:48.417Z,60.00
2023-05-12T12:53:15.267Z,60.70
2023-05-12T12:55:42.104Z,61.50
2023-05-12T12:58:09.102Z,60.30
2023-05-12T13:00:36.169Z,61.70
2023-05-12T13:03:03.211Z,61.20
2023-05-12T13:05:29.955Z,60.70
2023-05-12T13:07:56.757Z,60.50
2023-05-12T13:10:23.583Z,62.00
2023-05-12T13:12:50.242Z,61.20
2023-05-12T13:15:19.513Z,61.70
2023-05-12T13:17:46.689Z,62.10
2023-05-12T13:20:14.063Z,62.30
2023-05-12T13:22:43.768Z,62.40
2023-05-12T13:25:11.169Z,63.30
2023-05-12T13:27:38.399Z,64.10
2023-05-12T13:30:06.590Z,64.10
2023-05-12T13:32:33.750Z,65.70
2023-05-12T13:35:00.912Z,66.40
2023-05-12T13:37:27.845Z,68.20
2023-05-12T13:39:54.552Z,68.60
2023-05-12T13:42:22.382Z,68.50
2023-05-12T13:44:49.350Z,69.60
2023-05-12T13:47:16.098Z,68.80
2023-05-12T13:49:42.769Z,67.70
2023-05-12T13:52:09.437Z,67.60
2023-05-12T13:54:36.475Z,66.80
2023-05-12T13:57:04.157Z,67.20
2023-05-12T13:59:31.326Z,63.80
2023-05-12T14:01:58.261Z,63.50
2023-05-12T14:04:25.106Z,63.90
2023-05-12T14:06:51.809Z,63.60
2023-05-12T14:09:19.439Z,63.00
2023-05-12T14:11:46.250Z,59.80
2023-05-12T14:14:12.926Z,60.80
2023-05-12T14:16:39.797Z,61.60
2023-05-12T14:19:06.619Z,62.40
2023-05-12T14:21:33.831Z,60.80
2023-05-12T14:24:00.483Z,61.80
2023-05-12T14:26:28.257Z,62.60
2023-05-12T14:28:55.179Z,62.80
2023-05-12T14:31:21.933Z,64.10
2023-05-12T14:33:48.548Z,62.80
2023-05-12T14:36:15.215Z,62.50
2023-05-12T14:38:42.007Z,59.00
2023-05-12T14:41:09.636Z,58.50
2023-05-12T14:43:36.375Z,57.50
2023-05-12T14:46:03.201Z,58.50
2023-05-12T14:48:29.941Z,59.80
2023-05-12T14:50:56.639Z,59.00
2023-05-12T14:53:23.353Z,59.40
2023-05-12T14:55:50.068Z,58.70
2023-05-12T14:58:17.754Z,57.30
2023-05-12T15:00:44.800Z,58.80
2023-05-12T15:03:11.758Z,57.90
2023-05-12T15:05:56.741Z,57.80
2023-05-12T15:08:25.414Z,57.90
2023-05-12T15:10:52.134Z,57.90
2023-05-12T15:13:20.497Z,57.10
2023-05-12T15:15:47.239Z,59.30
2023-05-12T15:18:13.965Z,59.00
2023-05-12T15:20:40.789Z,59.00
2023-05-12T15:23:07.520Z,58.90
2023-05-12T15:25:34.266Z,58.60
2023-05-12T15:28:00.947Z,58.20
2023-05-12T15:30:27.667Z,58.50
2023-05-12T15:32:54.283Z,57.10
2023-05-12T15:35:21.121Z,57.90
2023-05-12T15:37:48.005Z,58.30
2023-05-12T15:40:14.806Z,57.60
2023-05-12T15:42:41.568Z,57.00
2023-05-12T15:45:09.704Z,56.00
2023-05-12T15:47:36.588Z,57.20
2023-05-12T15:50:04.074Z,57.80
2023-05-12T15:52:31.030Z,57.80
2023-05-12T15:54:57.757Z,58.20
2023-05-12T15:57:24.458Z,58.80
2023-05-12T15:59:56.312Z,59.20
2023-05-12T16:02:23.004Z,59.40
2023-05-12T16:04:49.732Z,59.50
2023-05-12T16:07:16.473Z,59.70
2023-05-12T16:09:43.164Z,60.20
2023-05-12T16:12:11.468Z,61.90
2023-05-12T16:14:38.259Z,65.20
2023-05-12T16:17:05.073Z,66.50
2023-05-12T16:19:31.840Z,66.00
2023-05-12T16:21:59.485Z,67.60
2023-05-12T16:24:28.528Z,66.80
2023-05-12T16:26:55.609Z,67.00
2023-05-12T16:29:22.385Z,67.20
2023-05-12T16:31:49.199Z,67.70
2023-05-12T16:34:15.935Z,67.90
2023-05-12T16:36:42.669Z,68.40
2023-05-12T16:39:09.389Z,68.50
2023-05-12T16:41:36.194Z,70.70
2023-05-12T16:44:03.137Z,73.00
2023-05-12T16:46:29.871Z,73.90
2023-05-12T16:48:56.595Z,74.90
2023-05-12T16:51:24.413Z,76.90
2023-05-12T16:53:51.497Z,77.80
2023-05-12T16:56:18.156Z,78.40
2023-05-12T16:58:44.853Z,79.60
2023-05-12T17:01:11.636Z,81.00
2023-05-12T17:03:39.360Z,81.20
2023-05-12T17:06:06.297Z,83.30
2023-05-12T17:08:35.750Z,83.30
2023-05-12T17:11:02.850Z,84.80
2023-05-12T17:13:30.481Z,85.90
2023-05-12T17:15:57.565Z,87.10
2023-05-12T17:18:24.915Z,88.10
2023-05-12T17:20:51.677Z,88.10
2023-05-12T17:23:18.321Z,90.00
2023-05-12T17:25:44.977Z,90.30
2023-05-12T17:28:11.671Z,90.60
2023-05-12T17:30:38.403Z,90.70
2023-05-12T17:33:05.152Z,90.50
2023-05-12T17:35:32.935Z,91.00
2023-05-12T17:37:59.629Z,91.70
2023-05-12T17:40:26.550Z,92.40
2023-05-12T17:42:53.351Z,93.10
2023-05-12T17:45:20.527Z,93.30
2023-05-12T17:47:49.099Z,93.30
2023-05-12T17:50:16.385Z,93.60
2023-05-12T17:52:43.502Z,94.40
2023-05-12T17:55:10.198Z,95.20
2023-05-12T17:57:36.886Z,95.40
2023-05-12T18:00:09.584Z,96.20
2023-05-12T18:02:37.085Z,97.00
2023-05-12T18:05:05.243Z,98.10
2023-05-12T18:07:32.105Z,98.80
2023-05-12T18:09:58.784Z,98.80
2023-05-12T18:12:25.532Z,98.80
2023-05-12T18:14:52.235Z,98.50
2023-05-12T18:17:19.585Z,99.00
2023-05-12T18:19:46.316Z,99.60
2023-05-12T18:22:13.205Z,99.90
2023-05-12T18:24:39.869Z,99.90
2023-05-12T18:27:06.722Z,99.90
2023-05-12T18:29:33.468Z,99.90
2023-05-12T18:32:00.108Z,99.90
2023-05-12T18:34:26.804Z,99.90
2023-05-12T18:36:53.492Z,99.90
2023-05-12T18:39:20.391Z,99.90
2023-05-12T18:41:47.141Z,99.90
2023-05-12T18:44:13.905Z,99.90
2023-05-12T18:46:40.728Z,99.90
2023-05-12T18:49:07.723Z,99.90
2023-05-12T18:51:34.403Z,99.90
2023-05-12T18:54:01.135Z,99.90
2023-05-12T18:56:27.852Z,99.90
2023-05-12T18:58:54.650Z,99.90
2023-05-12T19:01:21.400Z,99.90
2023-05-12T19:03:48.635Z,99.90
2023-05-12T19:06:15.290Z,99.90
2023-05-12T19:08:41.977Z,99.90
2023-05-12T19:11:09.009Z,99.90
2023-05-12T19:13:40.648Z,99.90
2023-05-12T19:16:07.464Z,99.90
2023-05-12T19:18:34.388Z,99.90
2023-05-12T19:21:01.689Z,99.90
2023-05-12T19:23:30.114Z,99.90
2023-05-12T19:25:56.820Z,99.90
2023-05-12T19:28:23.631Z,99.90
2023-05-12T19:30:50.794Z,99.90
2023-05-12T19:33:17.598Z,99.90
2023-05-12T19:35:44.370Z,99.90
2023-05-12T19:38:11.084Z,99.90
2023-05-12T19:40:37.702Z,99.90
2023-05-12T19:43:05.220Z,99.90
2023-05-12T19:45:31.980Z,99.90
2023-05-12T19:47:59.154Z,99.90
2023-05-12T19:50:25.807Z,99.90
2023-05-12T19:52:52.457Z,99.90
2023-05-12T19:55:19.909Z,99.90
2023-05-12T19:57:46.785Z,99.90
2023-05-12T20:00:13.649Z,99.90
2023-05-12T20:02:40.825Z,99.90
2023-05-12T20:05:07.764Z,99.90
2023-05-12T20:07:34.541Z,99.90
2023-05-12T20:10:01.315Z,99.90
2023-05-12T20:12:27.923Z,99.90
2023-05-12T20:14:54.682Z,99.90
2023-05-12T20:17:21.910Z,99.90
2023-05-12T20:19:48.683Z,99.90
2023-05-12T20:22:16.677Z,99.90
2023-05-12T20:24:44.355Z,99.90
2023-05-12T20:27:11.051Z,99.90
2023-05-12T20:29:37.979Z,99.90
2023-05-12T20:32:04.819Z,99.90
2023-05-12T20:34:31.974Z,99.90
2023-05-12T20:36:58.689Z,99.90
2023-05-12T20:39:25.398Z,99.90
2023-05-12T20:41:52.071Z,99.90
2023-05-12T20:44:19.472Z,99.90
2023-05-12T20:46:46.671Z,99.90
2023-05-12T20:49:13.417Z,99.90
2023-05-12T20:51:40.198Z,99.90
2023-05-12T20:54:06.865Z,99.90
2023-05-12T20:56:33.593Z,99.90
2023-05-12T20:59:00.416Z,99.90
2023-05-12T21:01:27.143Z,99.90
2023-05-12T21:03:54.009Z,99.90
2023-05-12T21:06:20.786Z,99.90
2023-05-12T21:08:47.448Z,99.90
2023-05-12T21:11:17.295Z,99.90
2023-05-12T21:13:45.145Z,99.90
2023-05-12T21:16:11.847Z,99.90
2023-05-12T21:18:38.644Z,99.90
2023-05-12T21:21:06.073Z,99.90
2023-05-12T21:23:32.866Z,99.90
2023-05-12T21:25:59.549Z,99.90
2023-05-12T21:28:26.258Z,99.90
2023-05-12T21:30:53.050Z,99.90
2023-05-12T21:33:19.700Z,99.90
2023-05-12T21:35:46.435Z,99.90
2023-05-12T21:38:13.404Z,99.90
2023-05-12T21:40:40.102Z,99.90
2023-05-12T21:43:06.915Z,99.90
2023-05-12T21:45:33.593Z,99.90
2023-05-12T21:48:00.383Z,99.90
2023-05-12T21:50:27.134Z,99.90
2023-05-12T21:52:53.855Z,99.90
2023-05-12T21:55:20.599Z,99.90
2023-05-12T21:57:47.514Z,99.90
2023-05-12T22:00:15.102Z,99.90
2023-05-12T22:02:42.147Z,99.90
2023-05-12T22:05:09.149Z,99.90
2023-05-12T22:07:35.831Z,99.90
2023-05-12T22:10:02.958Z,99.90
2023-05-12T22:12:29.714Z,99.90
2023-05-12T22:14:56.377Z,99.90
2023-05-12T22:17:23.144Z,99.90
2023-05-12T22:19:50.131Z,99.90
2023-05-12T22:22:16.756Z,99.90
2023-05-12T22:24:43.872Z,99.90
2023-05-12T22:27:10.723Z,99.90
2023-05-12T22:29:37.441Z,99.90
2023-05-12T22:32:04.121Z,99.90
2023-05-12T22:34:30.823Z,99.90
2023-05-12T22:36:57.496Z,99.90
2023-05-12T22:39:24.177Z,99.90
2023-05-12T22:41:51.074Z,99.90
2023-05-12T22:44:17.773Z,99.90
2023-05-12T22:46:44.531Z,99.90
2023-05-12T22:49:11.354Z,99.90
2023-05-12T22:51:38.099Z,99.90
2023-05-12T22:54:04.821Z,99.90
2023-05-12T22:56:31.498Z,99.90
2023-05-12T22:58:58.268Z,99.90
2023-05-12T23:01:25.045Z,99.90
2023-05-12T23:03:52.052Z,99.90
2023-05-12T23:06:18.823Z,99.90
2023-05-12T23:08:45.705Z,99.90
2023-05-12T23:11:13.001Z,99.90
2023-05-12T23:13:39.736Z,99.90
2023-05-12T23:16:06.984Z,99.90
2023-05-12T23:18:34.115Z,99.90
2023-05-12T23:21:00.913Z,99.90
2023-05-12T23:23:27.610Z,99.90
2023-05-12T23:25:54.318Z,99.90
2023-05-12T23:28:21.031Z,99.90
2023-05-12T23:30:47.707Z,99.90
2023-05-12T23:33:14.550Z,99.90
2023-05-12T23:35:41.308Z,99.90
2023-05-12T23:38:08.065Z,99.90
2023-05-12T23:40:39.359Z,99.90
2023-05-12T23:43:06.343Z,99.90
2023-05-12T23:45:33.144Z,99.90
2023-05-12T23:48:00.036Z,99.90
2023-05-12T23:50:26.913Z,99.90
2023-05-12T23:52:53.693Z,99.90
2023-05-12T23:55:20.739Z,99.90
2023-05-12T23:57:47.530Z,99.90
